Time;durP1;ratioP1;P1;durP2;ratioP2;P2;SDS_P1;SDS_P2;PMS_P1;PMS_P2;Temp;Humidity;BMP_temperature;BMP_pressure;BME280_temperature;BME280_humidity;BME280_pressure;Samples;Min_cycle;Max_cycle;Signal;HPM_P1;HPM_P2
2023/05/06 00:00:31;;;;;;;4.35;3.95;;;11.70;99.90;;;;;;4635793;28;9999807;-74
2023/05/06 00:02:59;;;;;;;5.53;4.20;;;11.70;99.90;;;;;;4978638;28;20023;-73
2023/05/06 00:05:25;;;;;;;4.80;4.35;;;11.70;99.90;;;;;;4983074;28;20422;-73
2023/05/06 00:07:51;;;;;;;4.63;4.22;;;11.70;99.90;;;;;;4982944;28;20034;-73
2023/05/06 00:10:17;;;;;;;4.78;4.30;;;11.70;99.90;;;;;;4978832;28;20077;-73
2023/05/06 00:12:43;;;;;;;4.80;4.40;;;11.70;99.90;;;;;;4981210;28;20142;-73
2023/05/06 00:15:08;;;;;;;4.50;4.10;;;11.70;99.90;;;;;;4987452;28;20514;-73
2023/05/06 00:17:34;;;;;;;5.40;4.90;;;11.70;99.90;;;;;;4981398;28;20038;-73
2023/05/06 00:20:00;;;;;;;5.43;4.75;;;11.70;99.90;;;;;;4984034;28;20034;-73
2023/05/06 00:22:25;;;;;;;6.13;5.55;;;11.70;99.90;;;;;;4981997;28;20026;-73
2023/05/06 00:24:51;;;;;;;7.47;6.78;;;11.70;99.90;;;;;;4987815;28;20027;-73
2023/05/06 00:27:16;;;;;;;6.53;5.93;;;11.70;99.90;;;;;;4983536;28;20118;-74
2023/05/06 00:29:42;;;;;;;7.97;5.95;;;11.80;99.90;;;;;;4986862;28;20434;-73
2023/05/06 00:32:07;;;;;;;6.85;6.15;;;11.80;99.90;;;;;;4986626;28;20026;-73
2023/05/06 00:34:33;;;;;;;7.13;6.20;;;11.80;99.90;;;;;;4983417;28;20113;-73
2023/05/06 00:36:58;;;;;;;7.05;6.35;;;11.80;99.90;;;;;;4985670;28;20025;-73
2023/05/06 00:39:25;;;;;;;8.02;6.80;;;11.80;99.90;;;;;;4983417;28;20478;-73
2023/05/06 00:41:51;;;;;;;8.23;7.20;;;11.80;99.90;;;;;;4987318;28;20394;-73
2023/05/06 00:44:16;;;;;;;7.78;6.97;;;11.80;99.90;;;;;;4987802;28;20030;-73
2023/05/06 00:46:42;;;;;;;8.38;7.20;;;11.80;99.90;;;;;;4969971;28;20104;-73
2023/05/06 00:49:08;;;;;;;9.45;6.85;;;11.80;99.90;;;;;;4981574;28;20034;-73
2023/05/06 00:51:34;;;;;;;7.40;6.70;;;11.80;99.90;;;;;;4988299;28;20027;-73
2023/05/06 00:54:01;;;;;;;8.40;7.53;;;11.80;99.90;;;;;;4987110;28;20037;-73
2023/05/06 00:56:26;;;;;;;8.43;7.55;;;11.80;99.90;;;;;;4985640;28;20026;-73
2023/05/06 00:58:53;;;;;;;8.82;7.22;;;11.80;99.90;;;;;;4982660;28;20445;-73
2023/05/06 01:01:21;;;;;;;14.98;8.07;;;11.80;99.90;;;;;;4988247;28;20030;-73
2023/05/06 01:03:47;;;;;;;22.35;8.05;;;11.70;99.90;;;;;;4986807;28;20037;-73
2023/05/06 01:06:27;;;;;;;7.90;7.20;;;11.70;99.90;;;;;;4984228;28;20026;-73
2023/05/06 01:09:05;;;;;;;9.45;6.90;;;11.70;99.90;;;;;;4980333;28;20039;-73
2023/05/06 01:11:49;;;;;;;6.63;5.75;;;11.70;99.90;;;;;;4982934;28;20088;-73
2023/05/06 01:14:40;;;;;;;9.95;8.85;;;11.70;99.90;;;;;;4984345;28;20347;-73
2023/05/06 01:17:10;;;;;;;10.55;9.45;;;11.70;99.90;;;;;;4971914;28;20026;-73
2023/05/06 01:19:40;;;;;;;11.35;10.10;;;11.70;99.90;;;;;;4979045;28;20060;-73
2023/05/06 01:22:07;;;;;;;10.07;9.00;;;11.70;99.90;;;;;;4976763;28;20358;-73
2023/05/06 01:24:43;;;;;;;9.95;8.80;;;11.80;99.90;;;;;;4971691;28;20494;-73
2023/05/06 01:27:11;;;;;;;9.93;8.93;;;11.80;99.90;;;;;;4981803;28;20034;-73
2023/05/06 01:29:41;;;;;;;9.52;8.52;;;11.80;99.90;;;;;;4981024;28;20031;-73
2023/05/06 01:32:49;;;;;;;8.68;7.82;;;11.80;99.90;;;;;;4978894;28;20049;-73
2023/05/06 01:35:36;;;;;;;9.85;7.65;;;11.80;99.90;;;;;;4985942;28;20022;-74
2023/05/06 01:38:24;;;;;;;9.10;7.43;;;11.80;99.90;;;;;;4983012;28;20121;-73
2023/05/06 01:40:54;;;;;;;9.80;8.80;;;11.80;99.90;;;;;;4980759;28;20534;-72
2023/05/06 01:43:20;;;;;;;12.00;9.68;;;11.80;99.90;;;;;;4983593;28;20665;-73
2023/05/06 01:45:52;;;;;;;12.27;10.60;;;11.80;99.90;;;;;;4985856;28;20522;-73
2023/05/06 01:48:26;;;;;;;11.77;10.35;;;11.70;99.90;;;;;;4984335;28;20038;-73
2023/05/06 01:50:52;;;;;;;9.70;8.70;;;11.70;99.90;;;;;;4985012;28;20026;-73
2023/05/06 01:53:18;;;;;;;14.23;7.70;;;11.70;99.90;;;;;;4984923;28;20033;-73
2023/05/06 01:55:43;;;;;;;27.00;6.65;;;11.60;99.90;;;;;;5004248;28;20018;-73
2023/05/06 01:58:09;;;;;;;6.40;5.80;;;11.60;99.90;;;;;;4986723;28;20466;-72
2023/05/06 02:00:37;;;;;;;5.18;4.75;;;11.50;99.90;;;;;;4986187;28;20034;-73
2023/05/06 02:03:03;;;;;;;6.10;5.60;;;11.50;99.90;;;;;;4984049;28;20026;-73
2023/05/06 02:05:28;;;;;;;8.05;6.82;;;11.50;99.90;;;;;;4981902;28;20109;-73
2023/05/06 02:07:54;;;;;;;12.80;7.38;;;11.40;99.90;;;;;;4986020;28;20073;-74
2023/05/06 02:10:20;;;;;;;7.72;7.03;;;11.30;99.90;;;;;;4975699;28;20031;-73
2023/05/06 02:12:45;;;;;;;7.30;6.47;;;11.30;99.90;;;;;;4981252;28;20038;-73
2023/05/06 02:15:11;;;;;;;7.00;5.97;;;11.30;99.90;;;;;;4984294;28;20033;-73
2023/05/06 02:17:37;;;;;;;10.45;5.60;;;11.20;99.90;;;;;;4978630;28;20041;-73
2023/05/06 02:20:03;;;;;;;5.30;4.80;;;11.20;99.90;;;;;;4977911;28;20383;-73
2023/05/06 02:22:29;;;;;;;7.70;5.22;;;11.20;99.90;;;;;;4982062;28;20030;-73
2023/05/06 02:24:55;;;;;;;5.63;5.13;;;11.20;99.90;;;;;;4984671;28;20080;-73
2023/05/06 02:27:20;;;;;;;5.22;4.80;;;11.20;99.90;;;;;;4976044;28;20041;-72
2023/05/06 02:29:46;;;;;;;5.53;5.03;;;11.20;99.90;;;;;;4976707;28;20561;-73
2023/05/06 02:32:11;;;;;;;7.45;6.18;;;11.10;99.90;;;;;;4980386;28;20015;-73
2023/05/06 02:34:37;;;;;;;29.77;6.82;;;11.20;99.90;;;;;;4983415;28;20608;-72
2023/05/06 02:37:02;;;;;;;7.00;6.40;;;11.20;99.90;;;;;;4982523;28;20202;-73
2023/05/06 02:39:28;;;;;;;14.90;6.72;;;11.20;99.90;;;;;;4979797;28;20092;-73
2023/05/06 02:41:54;;;;;;;7.43;6.55;;;11.20;99.90;;;;;;4981525;28;20470;-73
2023/05/06 02:44:19;;;;;;;8.57;6.55;;;11.20;99.90;;;;;;4980291;28;20034;-73
2023/05/06 02:46:45;;;;;;;7.32;6.63;;;11.20;99.90;;;;;;4981152;28;20031;-73
2023/05/06 02:49:10;;;;;;;7.72;6.88;;;11.20;99.90;;;;;;4983005;28;20532;-73
2023/05/06 02:51:36;;;;;;;10.27;6.32;;;11.20;99.90;;;;;;4980396;28;20076;-73
2023/05/06 02:54:02;;;;;;;9.95;6.80;;;11.30;99.90;;;;;;4981984;28;20023;-73
2023/05/06 02:56:27;;;;;;;14.15;6.57;;;11.20;99.90;;;;;;4979344;28;20021;-72
2023/05/06 02:58:53;;;;;;;7.85;7.05;;;11.20;99.90;;;;;;4971142;28;20077;-72
2023/05/06 03:01:18;;;;;;;29.63;6.93;;;11.20;99.90;;;;;;4980475;28;20030;-72
2023/05/06 03:03:44;;;;;;;95.45;7.55;;;11.20;99.90;;;;;;4986388;28;20153;-72
2023/05/06 03:06:10;;;;;;;6.90;6.20;;;11.10;99.90;;;;;;4982339;28;20038;-72
2023/05/06 03:08:36;;;;;;;22.92;6.57;;;11.10;99.90;;;;;;4982105;28;20034;-72
2023/05/06 03:11:01;;;;;;;6.97;6.13;;;11.10;99.90;;;;;;4980783;28;20124;-72
2023/05/06 03:13:27;;;;;;;8.00;6.47;;;11.10;99.90;;;;;;4985293;28;20030;-72
2023/05/06 03:15:53;;;;;;;6.10;5.50;;;11.10;99.90;;;;;;4977669;28;20079;-72
2023/05/06 03:18:19;;;;;;;5.10;4.70;;;11.10;99.90;;;;;;4984149;28;20038;-72
2023/05/06 03:20:47;;;;;;;13.57;5.22;;;11.10;99.90;;;;;;4984580;28;20034;-72
2023/05/06 03:23:12;;;;;;;6.55;4.97;;;11.10;99.90;;;;;;4986871;28;20299;-72
2023/05/06 03:25:38;;;;;;;7.13;6.43;;;11.00;99.90;;;;;;4982523;28;20034;-72
2023/05/06 03:28:04;;;;;;;10.45;7.07;;;11.00;99.90;;;;;;4971845;28;20045;-72
2023/05/06 03:30:30;;;;;;;10.32;7.03;;;11.10;99.90;;;;;;4975217;28;20078;-72
2023/05/06 03:32:55;;;;;;;47.85;7.45;;;11.10;99.90;;;;;;4981089;28;20038;-73
2023/05/06 03:35:21;;;;;;;7.47;6.78;;;11.10;99.90;;;;;;4976852;28;20031;-73
2023/05/06 03:37:47;;;;;;;6.95;6.28;;;11.10;99.90;;;;;;4976194;28;20031;-73
2023/05/06 03:40:12;;;;;;;7.75;6.95;;;11.20;99.90;;;;;;4975733;28;20125;-73
2023/05/06 03:42:38;;;;;;;8.55;7.65;;;11.20;99.90;;;;;;4975681;28;20034;-73
2023/05/06 03:45:05;;;;;;;8.20;7.40;;;11.20;99.90;;;;;;4971614;28;20038;-72
2023/05/06 03:47:31;;;;;;;8.63;7.72;;;11.20;99.90;;;;;;4981055;28;20034;-73
2023/05/06 03:49:56;;;;;;;8.95;8.05;;;11.20;99.90;;;;;;4987879;28;20034;-73
2023/05/06 03:52:22;;;;;;;8.13;7.18;;;11.10;99.90;;;;;;4987161;28;20120;-73
2023/05/06 03:54:48;;;;;;;9.40;7.65;;;11.10;99.90;;;;;;4981498;28;20037;-73
2023/05/06 03:57:14;;;;;;;11.98;9.90;;;11.10;99.90;;;;;;4984777;28;20486;-73
2023/05/06 03:59:39;;;;;;;13.32;11.30;;;11.10;99.90;;;;;;4987434;28;20096;-73
2023/05/06 04:02:05;;;;;;;15.07;11.23;;;11.10;99.90;;;;;;4977905;28;20022;-73
2023/05/06 04:04:30;;;;;;;13.40;11.10;;;11.10;99.90;;;;;;4980863;28;20891;-73
2023/05/06 04:06:56;;;;;;;17.25;12.27;;;11.10;99.90;;;;;;4976179;28;20434;-73
2023/05/06 04:09:21;;;;;;;12.70;10.98;;;11.10;99.90;;;;;;4983144;28;20041;-72
2023/05/06 04:11:47;;;;;;;13.57;10.32;;;11.10;99.90;;;;;;4986858;28;20118;-73
2023/05/06 04:14:13;;;;;;;12.70;10.75;;;11.10;99.90;;;;;;4989624;28;20041;-72
2023/05/06 04:16:38;;;;;;;15.05;12.43;;;11.10;99.90;;;;;;4983509;28;20050;-72
2023/05/06 04:19:04;;;;;;;15.43;11.63;;;11.10;99.90;;;;;;4980102;28;20027;-73
2023/05/06 04:21:30;;;;;;;12.50;10.60;;;11.10;99.90;;;;;;4981697;28;20065;-73
2023/05/06 04:23:56;;;;;;;13.57;10.82;;;11.10;99.90;;;;;;4985752;28;20046;-73
2023/05/06 04:26:21;;;;;;;14.35;11.95;;;11.10;99.90;;;;;;4982233;28;20963;-72
2023/05/06 04:28:47;;;;;;;12.50;10.45;;;11.10;99.90;;;;;;4981272;28;20112;-74
2023/05/06 04:31:13;;;;;;;14.23;11.43;;;11.00;99.90;;;;;;4986068;28;20521;-73
2023/05/06 04:33:40;;;;;;;14.05;11.43;;;11.00;99.90;;;;;;4980436;28;20050;-73
2023/05/06 04:36:06;;;;;;;13.68;11.23;;;11.00;99.90;;;;;;4980228;28;20465;-73
2023/05/06 04:38:31;;;;;;;12.95;11.00;;;11.10;99.90;;;;;;4979413;28;20039;-73
2023/05/06 04:40:57;;;;;;;12.27;10.80;;;11.10;99.90;;;;;;4986699;28;20042;-73
2023/05/06 04:43:23;;;;;;;13.07;10.73;;;11.10;99.90;;;;;;4982888;28;20076;-73
2023/05/06 04:45:49;;;;;;;13.30;11.45;;;11.20;99.90;;;;;;4983410;28;20026;-73
2023/05/06 04:48:20;;;;;;;13.60;10.93;;;11.20;99.90;;;;;;4979751;28;20096;-73
2023/05/06 04:50:46;;;;;;;12.65;10.50;;;11.20;99.90;;;;;;4985698;28;20113;-73
2023/05/06 04:53:12;;;;;;;10.93;9.80;;;11.30;99.90;;;;;;4983137;28;20129;-73
2023/05/06 04:55:37;;;;;;;11.85;10.10;;;11.30;99.90;;;;;;4982622;28;20084;-74
2023/05/06 04:58:03;;;;;;;12.82;10.15;;;11.30;99.90;;;;;;4983893;28;20085;-73
2023/05/06 05:00:29;;;;;;;12.70;10.52;;;11.30;99.90;;;;;;4987202;28;20026;-74
2023/05/06 05:02:55;;;;;;;13.48;9.68;;;11.20;99.90;;;;;;4977717;28;20465;-74
2023/05/06 05:05:20;;;;;;;11.35;9.40;;;11.20;99.90;;;;;;4976487;28;20045;-74
2023/05/06 05:07:46;;;;;;;10.52;8.68;;;11.20;99.90;;;;;;4974359;28;20050;-73
2023/05/06 05:10:11;;;;;;;15.20;10.00;;;11.20;99.90;;;;;;4979217;28;20030;-74
2023/05/06 05:12:37;;;;;;;12.35;9.50;;;11.10;99.90;;;;;;4979641;28;20034;-74
2023/05/06 05:15:03;;;;;;;12.18;10.43;;;11.10;99.90;;;;;;4984608;28;20034;-73
2023/05/06 05:17:29;;;;;;;13.55;10.27;;;11.10;99.90;;;;;;4966298;28;20042;-73
2023/05/06 05:19:54;;;;;;;13.85;10.82;;;11.20;99.90;;;;;;4983684;28;20041;-74
2023/05/06 05:22:20;;;;;;;13.07;10.98;;;11.20;99.90;;;;;;4979328;28;20438;-73
2023/05/06 05:24:46;;;;;;;13.77;11.23;;;11.20;99.90;;;;;;4979844;28;20073;-73
2023/05/06 05:27:11;;;;;;;12.43;10.30;;;11.30;99.90;;;;;;4986531;28;20057;-73
2023/05/06 05:29:37;;;;;;;12.40;10.70;;;11.40;99.90;;;;;;4982485;28;20042;-73
2023/05/06 05:32:03;;;;;;;13.05;11.02;;;11.40;99.90;;;;;;4985985;28;20135;-73
2023/05/06 05:34:29;;;;;;;13.65;11.50;;;11.40;99.90;;;;;;4978883;28;20066;-73
2023/05/06 05:36:56;;;;;;;12.75;11.25;;;11.40;99.90;;;;;;4981892;28;20071;-73
2023/05/06 05:39:22;;;;;;;13.50;10.82;;;11.40;99.90;;;;;;4982129;28;20030;-73
2023/05/06 05:41:47;;;;;;;12.48;10.57;;;11.30;99.90;;;;;;4976930;28;20049;-73
2023/05/06 05:44:13;;;;;;;16.42;11.57;;;11.30;99.90;;;;;;4985214;28;20027;-73
2023/05/06 05:46:40;;;;;;;14.57;11.32;;;11.30;99.90;;;;;;4981858;28;20034;-73
2023/05/06 05:49:05;;;;;;;13.77;11.25;;;11.40;99.90;;;;;;4976964;28;20366;-74
2023/05/06 05:51:31;;;;;;;16.95;12.23;;;11.40;99.90;;;;;;4986140;28;20121;-73
2023/05/06 05:53:57;;;;;;;16.55;12.15;;;11.50;99.90;;;;;;4975448;28;20050;-73
2023/05/06 05:56:23;;;;;;;15.27;12.20;;;11.60;99.90;;;;;;4978772;28;20022;-73
2023/05/06 05:58:48;;;;;;;16.30;12.30;;;11.70;99.90;;;;;;4976516;28;20054;-73
2023/05/06 06:01:14;;;;;;;17.98;13.30;;;11.80;99.90;;;;;;4978981;28;20617;-73
2023/05/06 06:03:41;;;;;;;15.65;11.85;;;11.90;99.90;;;;;;4290816;28;10000683;-73
2023/05/06 06:06:08;;;;;;;17.52;11.75;;;12.00;99.90;;;;;;4977235;28;20042;-74
2023/05/06 06:08:34;;;;;;;17.80;12.63;;;12.10;99.90;;;;;;4973414;28;20483;-74
2023/05/06 06:11:02;;;;;;;15.27;11.40;;;12.10;99.90;;;;;;4975532;28;20080;-74
2023/05/06 06:13:28;;;;;;;14.60;10.98;;;12.20;99.90;;;;;;4985015;28;20046;-74
2023/05/06 06:15:55;;;;;;;18.70;13.35;;;12.30;99.90;;;;;;4980412;28;20034;-74
2023/05/06 06:18:22;;;;;;;16.55;12.32;;;12.40;99.90;;;;;;4980128;28;20034;-74
2023/05/06 06:20:47;;;;;;;17.70;12.80;;;12.40;99.90;;;;;;4984796;28;20375;-74
2023/05/06 06:23:13;;;;;;;16.20;11.55;;;12.50;99.90;;;;;;4987546;28;20176;-74
2023/05/06 06:25:38;;;;;;;16.35;12.70;;;12.60;99.90;;;;;;4981075;28;20138;-74
2023/05/06 06:28:04;;;;;;;16.25;12.07;;;12.70;99.90;;;;;;4984357;28;20072;-74
2023/05/06 06:30:30;;;;;;;14.82;11.75;;;12.90;99.90;;;;;;4985067;28;20155;-74
2023/05/06 06:32:57;;;;;;;16.73;12.82;;;13.00;99.90;;;;;;4978379;28;20045;-74
2023/05/06 06:35:23;;;;;;;17.77;12.63;;;13.10;99.90;;;;;;4980254;28;20046;-74
2023/05/06 06:37:48;;;;;;;18.92;12.60;;;13.20;99.90;;;;;;4974379;28;20393;-73
2023/05/06 06:40:15;;;;;;;18.55;12.50;;;13.30;99.90;;;;;;4981377;28;20062;-74
2023/05/06 06:42:40;;;;;;;18.08;12.48;;;13.30;99.90;;;;;;4981692;28;20034;-74
2023/05/06 06:45:07;;;;;;;17.13;12.82;;;13.40;99.90;;;;;;4987231;28;20049;-74
2023/05/06 06:47:34;;;;;;;18.00;12.63;;;13.50;99.90;;;;;;4989235;28;20075;-73
2023/05/06 06:49:59;;;;;;;15.75;11.77;;;13.60;99.90;;;;;;4975480;28;20292;-73
2023/05/06 06:52:25;;;;;;;14.02;11.20;;;13.60;99.90;;;;;;4979158;28;20077;-74
2023/05/06 06:54:51;;;;;;;19.15;12.57;;;13.50;99.90;;;;;;4979257;28;20513;-73
2023/05/06 06:57:17;;;;;;;16.15;12.02;;;13.50;99.90;;;;;;4978143;28;20033;-74
2023/05/06 06:59:43;;;;;;;14.75;11.02;;;13.70;99.90;;;;;;4973874;28;20121;-74
2023/05/06 07:02:09;;;;;;;15.07;11.38;;;13.70;99.90;;;;;;4982933;28;20172;-73
2023/05/06 07:04:34;;;;;;;15.50;11.13;;;13.80;99.90;;;;;;4979861;28;20282;-74
2023/05/06 07:07:00;;;;;;;15.55;11.13;;;14.00;99.90;;;;;;4975570;28;20121;-74
2023/05/06 07:09:25;;;;;;;14.30;11.07;;;14.30;99.90;;;;;;4972561;28;20026;-74
2023/05/06 07:11:51;;;;;;;13.07;10.20;;;14.60;99.90;;;;;;4973937;28;20133;-74
2023/05/06 07:14:17;;;;;;;14.50;10.57;;;14.90;99.90;;;;;;4975033;28;20050;-74
2023/05/06 07:16:42;;;;;;;14.52;10.98;;;15.20;99.90;;;;;;4975338;28;20773;-74
2023/05/06 07:19:08;;;;;;;15.00;10.35;;;15.50;99.90;;;;;;4985154;28;20057;-74
2023/05/06 07:21:33;;;;;;;16.08;11.05;;;15.90;99.90;;;;;;4990831;28;20042;-75
2023/05/06 07:23:59;;;;;;;16.52;10.57;;;16.20;99.90;;;;;;4988459;28;20312;-74
2023/05/06 07:26:25;;;;;;;12.93;10.07;;;16.30;99.90;;;;;;4982190;28;20268;-74
2023/05/06 07:28:51;;;;;;;15.18;10.35;;;16.10;99.90;;;;;;4984319;28;20038;-74
2023/05/06 07:31:19;;;;;;;14.05;10.50;;;15.90;99.90;;;;;;4986418;28;20038;-74
2023/05/06 07:33:46;;;;;;;15.63;10.57;;;15.70;99.90;;;;;;4983957;28;20485;-74
2023/05/06 07:36:12;;;;;;;13.32;9.80;;;15.60;99.90;;;;;;4986448;28;20030;-73
2023/05/06 07:38:37;;;;;;;12.25;9.32;;;15.40;99.90;;;;;;4987164;28;20023;-73
2023/05/06 07:41:03;;;;;;;12.95;9.02;;;15.40;99.90;;;;;;4978715;28;20030;-73
2023/05/06 07:43:28;;;;;;;14.98;10.63;;;15.40;99.90;;;;;;4984842;28;20045;-73
2023/05/06 07:46:01;;;;;;;13.45;9.80;;;15.40;99.90;;;;;;4985049;28;20153;-73
2023/05/06 07:48:30;;;;;;;11.77;9.25;;;15.30;99.90;;;;;;4985742;28;20030;-73
2023/05/06 07:50:56;;;;;;;14.77;9.98;;;15.20;99.90;;;;;;4983148;28;20035;-73
2023/05/06 07:53:22;;;;;;;12.68;9.80;;;15.10;99.90;;;;;;4989187;28;20037;-73
2023/05/06 07:55:48;;;;;;;12.73;10.02;;;15.00;99.90;;;;;;4983588;28;20227;-75
2023/05/06 07:58:13;;;;;;;11.23;8.75;;;15.10;99.90;;;;;;4982865;28;20264;-75
2023/05/06 08:00:39;;;;;;;10.07;7.95;;;15.40;99.90;;;;;;4987777;28;20398;-82
2023/05/06 08:03:05;;;;;;;10.65;7.90;;;15.70;99.90;;;;;;4988579;28;20041;-80
2023/05/06 08:05:30;;;;;;;9.38;7.55;;;15.90;99.90;;;;;;4995320;28;20084;-78
2023/05/06 08:07:56;;;;;;;10.73;8.88;;;16.20;99.90;;;;;;4984426;28;20026;-83
2023/05/06 08:10:22;;;;;;;12.02;8.02;;;16.40;99.90;;;;;;4989025;28;20471;-80
2023/05/06 08:12:47;;;;;;;9.45;8.13;;;16.30;99.90;;;;;;4985006;28;20049;-79
2023/05/06 08:15:14;;;;;;;9.90;8.25;;;16.40;99.90;;;;;;4984290;28;20430;-75
2023/05/06 08:17:40;;;;;;;9.93;7.90;;;16.50;99.90;;;;;;4982186;28;20054;-77
2023/05/06 08:20:06;;;;;;;9.85;8.38;;;16.70;99.90;;;;;;4987940;28;20120;-75
2023/05/06 08:22:32;;;;;;;10.27;8.00;;;16.80;99.90;;;;;;4977217;28;20050;-81
2023/05/06 08:24:58;;;;;;;10.18;8.05;;;16.90;99.90;;;;;;4977752;28;20239;-79
2023/05/06 08:27:24;;;;;;;10.38;8.25;;;16.80;99.90;;;;;;4982866;28;20485;-79
2023/05/06 08:29:50;;;;;;;10.60;7.43;;;16.90;99.90;;;;;;4982541;28;20124;-79
2023/05/06 08:32:15;;;;;;;8.80;7.07;;;16.80;99.90;;;;;;4976057;28;20042;-79
2023/05/06 08:34:41;;;;;;;7.72;6.55;;;16.90;99.90;;;;;;4983120;28;20018;-79
2023/05/06 08:37:06;;;;;;;8.77;7.13;;;17.10;99.90;;;;;;4982005;28;20034;-79
2023/05/06 08:39:32;;;;;;;7.43;6.63;;;17.10;99.90;;;;;;4981066;28;20057;-81
2023/05/06 08:42:00;;;;;;;7.85;7.03;;;17.20;99.90;;;;;;4974858;28;20038;-81
2023/05/06 08:44:26;;;;;;;8.63;7.25;;;17.20;99.90;;;;;;4986888;28;20038;-81
2023/05/06 08:46:52;;;;;;;8.63;7.63;;;17.20;99.90;;;;;;4984653;28;20037;-82
2023/05/06 08:49:18;;;;;;;9.73;8.30;;;17.30;99.90;;;;;;4987524;28;20426;-82
2023/05/06 08:51:45;;;;;;;8.98;7.32;;;17.40;99.90;;;;;;4979039;28;20073;-82
2023/05/06 08:54:11;;;;;;;7.95;7.15;;;17.50;99.90;;;;;;4982476;28;20120;-82
2023/05/06 08:56:41;;;;;;;9.50;6.45;;;17.50;99.90;;;;;;4980424;28;20070;-82
2023/05/06 08:59:08;;;;;;;8.85;6.80;;;17.60;99.90;;;;;;4982445;28;20037;-82
